sensor_id;sensor_type;location;lat;lon;timestamp;noise_LAeq;noise_LA_min;noise_LA_max;noise_LA01;noise_LA95
71030;Laerm;63723;51.436;5.976;2023-04-25T00:00:08;51.70;50.15;54.61;;
71030;Laerm;63723;51.436;5.976;2023-04-25T00:00:20;55.92;50.02;60.89;;
71030;Laerm;63723;51.436;5.976;2023-04-25T00:00:30;52.06;50.04;60.63;;
71030;Laerm;63723;51.436;5.976;2023-04-25T00:00:41;52.03;50.53;55.27;;
71030;Laerm;63723;51.436;5.976;2023-04-25T00:00:51;56.05;50.57;60.96;;
71030;Laerm;63723;51.436;5.976;2023-04-25T00:01:02;53.28;50.68;60.52;;
71030;Laerm;63723;51.436;5.976;2023-04-25T00:01:15;53.81;49.75;60.82;;
71030;Laerm;63723;51.436;5.976;2023-04-25T00:01:25;55.67;50.02;60.48;;
71030;Laerm;63723;51.436;5.976;2023-04-25T00:01:36;53.81;49.77;60.30;;
71030;Laerm;63723;51.436;5.976;2023-04-25T00:01:47;52.14;50.12;60.09;;
71030;Laerm;63723;51.436;5.976;2023-04-25T00:01:58;52.17;49.96;60.25;;
71030;Laerm;63723;51.436;5.976;2023-04-25T00:02:09;53.29;49.65;59.89;;
71030;Laerm;63723;51.436;5.976;2023-04-25T00:02:22;51.07;49.57;55.11;;
71030;Laerm;63723;51.436;5.976;2023-04-25T00:02:33;53.31;49.72;59.99;;
71030;Laerm;63723;51.436;5.976;2023-04-25T00:02:44;51.59;49.49;53.67;;
71030;Laerm;63723;51.436;5.976;2023-04-25T00:02:56;51.74;49.70;56.11;;
71030;Laerm;63723;51.436;5.976;2023-04-25T00:03:09;51.23;49.44;55.19;;
71030;Laerm;63723;51.436;5.976;2023-04-25T00:03:20;51.32;49.70;55.54;;
71030;Laerm;63723;51.436;5.976;2023-04-25T00:03:31;51.22;49.51;54.27;;
71030;Laerm;63723;51.436;5.976;2023-04-25T00:03:42;51.02;49.45;53.64;;
71030;Laerm;63723;51.436;5.976;2023-04-25T00:03:52;50.89;49.82;53.93;;
71030;Laerm;63723;51.436;5.976;2023-04-25T00:04:02;51.23;49.80;55.78;;
71030;Laerm;63723;51.436;5.976;2023-04-25T00:04:13;51.73;50.04;54.25;;
71030;Laerm;63723;51.436;5.976;2023-04-25T00:04:23;51.91;50.73;55.06;;
71030;Laerm;63723;51.436;5.976;2023-04-25T00:04:36;55.37;50.85;59.41;;
71030;Laerm;63723;51.436;5.976;2023-04-25T00:04:48;52.45;50.78;58.62;;
71030;Laerm;63723;51.436;5.976;2023-04-25T00:05:03;51.99;50.81;55.15;;
71030;Laerm;63723;51.436;5.976;2023-04-25T00:05:13;51.96;50.73;54.30;;
71030;Laerm;63723;51.436;5.976;2023-04-25T00:05:25;52.85;50.76;59.35;;
71030;Laerm;63723;51.436;5.976;2023-04-25T00:05:36;52.88;50.03;58.77;;
71030;Laerm;63723;51.436;5.976;2023-04-25T00:05:47;51.45;50.02;57.93;;
71030;Laerm;63723;51.436;5.976;2023-04-25T00:05:58;51.75;50.44;58.20;;
71030;Laerm;63723;51.436;5.976;2023-04-25T00:06:12;51.49;49.99;58.57;;
71030;Laerm;63723;51.436;5.976;2023-04-25T00:06:22;51.45;50.32;57.31;;
71030;Laerm;63723;51.436;5.976;2023-04-25T00:06:36;52.62;50.10;59.21;;
71030;Laerm;63723;51.436;5.976;2023-04-25T00:06:47;54.83;50.43;59.59;;
71030;Laerm;63723;51.436;5.976;2023-04-25T00:06:58;51.86;50.56;58.91;;
71030;Laerm;63723;51.436;5.976;2023-04-25T00:07:11;52.42;50.39;59.18;;
71030;Laerm;63723;51.436;5.976;2023-04-25T00:07:21;53.07;50.68;59.26;;
71030;Laerm;63723;51.436;5.976;2023-04-25T00:07:32;52.59;50.49;59.70;;
71030;Laerm;63723;51.436;5.976;2023-04-25T00:07:42;52.86;50.29;59.66;;
71030;Laerm;63723;51.436;5.976;2023-04-25T00:07:53;54.06;50.37;60.34;;
71030;Laerm;63723;51.436;5.976;2023-04-25T00:08:04;51.92;50.52;55.51;;
71030;Laerm;63723;51.436;5.976;2023-04-25T00:08:14;52.74;50.27;59.65;;
71030;Laerm;63723;51.436;5.976;2023-04-25T00:08:25;51.96;50.48;59.27;;
71030;Laerm;63723;51.436;5.976;2023-04-25T00:08:35;54.08;50.14;59.38;;
71030;Laerm;63723;51.436;5.976;2023-04-25T00:08:45;56.45;50.62;59.75;;
71030;Laerm;63723;51.436;5.976;2023-04-25T00:08:56;54.42;50.43;59.45;;
71030;Laerm;63723;51.436;5.976;2023-04-25T00:09:06;53.68;50.53;59.57;;
71030;Laerm;63723;51.436;5.976;2023-04-25T00:09:21;53.56;49.95;59.62;;
71030;Laerm;63723;51.436;5.976;2023-04-25T00:09:32;53.20;50.24;58.86;;
71030;Laerm;63723;51.436;5.976;2023-04-25T00:09:42;51.52;50.05;55.05;;
71030;Laerm;63723;51.436;5.976;2023-04-25T00:09:53;53.43;50.00;59.26;;
71030;Laerm;63723;51.436;5.976;2023-04-25T00:10:03;55.22;50.22;59.33;;
71030;Laerm;63723;51.436;5.976;2023-04-25T00:10:14;55.83;50.50;59.39;;
71030;Laerm;63723;51.436;5.976;2023-04-25T00:10:24;53.02;50.58;59.40;;
71030;Laerm;63723;51.436;5.976;2023-04-25T00:10:35;54.54;50.17;59.22;;
71030;Laerm;63723;51.436;5.976;2023-04-25T00:10:45;53.55;50.43;59.26;;
71030;Laerm;63723;51.436;5.976;2023-04-25T00:10:56;54.47;50.37;59.35;;
71030;Laerm;63723;51.436;5.976;2023-04-25T00:11:06;55.38;49.77;60.32;;
71030;Laerm;63723;51.436;5.976;2023-04-25T00:11:17;54.39;50.45;59.68;;
71030;Laerm;63723;51.436;5.976;2023-04-25T00:11:27;53.43;50.33;59.73;;
71030;Laerm;63723;51.436;5.976;2023-04-25T00:11:37;53.64;50.60;59.78;;
71030;Laerm;63723;51.436;5.976;2023-04-25T00:11:48;55.65;50.54;59.92;;
71030;Laerm;63723;51.436;5.976;2023-04-25T00:11:58;52.05;50.28;59.45;;
71030;Laerm;63723;51.436;5.976;2023-04-25T00:12:08;56.40;50.05;60.19;;
71030;Laerm;63723;51.436;5.976;2023-04-25T00:12:18;52.72;50.13;59.71;;
71030;Laerm;63723;51.436;5.976;2023-04-25T00:12:29;51.96;50.12;59.77;;
71030;Laerm;63723;51.436;5.976;2023-04-25T00:12:39;52.78;50.35;59.23;;
71030;Laerm;63723;51.436;5.976;2023-04-25T00:12:50;53.81;50.44;58.01;;
71030;Laerm;63723;51.436;5.976;2023-04-25T00:13:00;51.86;50.07;54.89;;
71030;Laerm;63723;51.436;5.976;2023-04-25T00:13:13;53.91;50.51;59.68;;
71030;Laerm;63723;51.436;5.976;2023-04-25T00:13:23;53.92;50.39;59.99;;
71030;Laerm;63723;51.436;5.976;2023-04-25T00:13:35;53.10;50.43;59.89;;
71030;Laerm;63723;51.436;5.976;2023-04-25T00:13:46;53.08;50.54;60.52;;
71030;Laerm;63723;51.436;5.976;2023-04-25T00:13:56;55.70;50.42;60.39;;
71030;Laerm;63723;51.436;5.976;2023-04-25T00:14:07;51.78;50.55;55.64;;
71030;Laerm;63723;51.436;5.976;2023-04-25T00:14:17;53.56;50.47;60.18;;
71030;Laerm;63723;51.436;5.976;2023-04-25T00:14:28;54.68;50.15;59.99;;
71030;Laerm;63723;51.436;5.976;2023-04-25T00:14:39;54.73;50.36;59.72;;
71030;Laerm;63723;51.436;5.976;2023-04-25T00:14:49;52.71;50.12;59.80;;
71030;Laerm;63723;51.436;5.976;2023-04-25T00:15:00;55.87;50.15;60.31;;
71030;Laerm;63723;51.436;5.976;2023-04-25T00:15:11;52.10;50.25;59.31;;
71030;Laerm;63723;51.436;5.976;2023-04-25T00:15:21;52.71;50.21;59.59;;
71030;Laerm;63723;51.436;5.976;2023-04-25T00:15:32;54.90;50.20;59.78;;
71030;Laerm;63723;51.436;5.976;2023-04-25T00:15:42;53.74;50.39;59.71;;
71030;Laerm;63723;51.436;5.976;2023-04-25T00:15:52;56.28;49.95;61.88;;
71030;Laerm;63723;51.436;5.976;2023-04-25T00:16:03;53.56;50.38;60.40;;
71030;Laerm;63723;51.436;5.976;2023-04-25T00:16:14;54.26;50.40;60.29;;
71030;Laerm;63723;51.436;5.976;2023-04-25T00:16:25;54.07;50.37;60.47;;
71030;Laerm;63723;51.436;5.976;2023-04-25T00:16:37;51.41;49.61;54.51;;
71030;Laerm;63723;51.436;5.976;2023-04-25T00:16:47;57.73;50.55;60.28;;
71030;Laerm;63723;51.436;5.976;2023-04-25T00:16:58;53.31;50.34;60.01;;
71030;Laerm;63723;51.436;5.976;2023-04-25T00:17:09;51.68;50.09;55.58;;
71030;Laerm;63723;51.436;5.976;2023-04-25T00:17:19;51.46;49.97;53.12;;
71030;Laerm;63723;51.436;5.976;2023-04-25T00:17:29;51.60;50.10;55.14;;
71030;Laerm;63723;51.436;5.976;2023-04-25T00:17:41;51.58;50.31;54.86;;
71030;Laerm;63723;51.436;5.976;2023-04-25T00:17:52;51.68;50.16;54.90;;
71030;Laerm;63723;51.436;5.976;2023-04-25T00:18:03;52.00;50.28;55.53;;
71030;Laerm;63723;51.436;5.976;2023-04-25T00:18:13;51.84;50.32;55.23;;
71030;Laerm;63723;51.436;5.976;2023-04-25T00:18:24;51.91;50.75;55.66;;
71030;Laerm;63723;51.436;5.976;2023-04-25T00:18:34;52.05;50.66;55.51;;
71030;Laerm;63723;51.436;5.976;2023-04-25T00:18:45;51.79;50.22;54.12;;
71030;Laerm;63723;51.436;5.976;2023-04-25T00:19:01;51.94;50.34;55.08;;
71030;Laerm;63723;51.436;5.976;2023-04-25T00:19:12;52.00;50.62;55.66;;
71030;Laerm;63723;51.436;5.976;2023-04-25T00:19:23;52.00;50.86;56.02;;
71030;Laerm;63723;51.436;5.976;2023-04-25T00:19:34;51.86;50.74;54.71;;
71030;Laerm;63723;51.436;5.976;2023-04-25T00:19:44;51.88;50.37;55.62;;
71030;Laerm;63723;51.436;5.976;2023-04-25T00:19:56;51.91;50.68;55.26;;
71030;Laerm;63723;51.436;5.976;2023-04-25T00:20:08;51.89;50.58;54.96;;
71030;Laerm;63723;51.436;5.976;2023-04-25T00:20:21;51.90;50.75;55.22;;
71030;Laerm;63723;51.436;5.976;2023-04-25T00:20:33;51.84;50.39;53.69;;
71030;Laerm;63723;51.436;5.976;2023-04-25T00:20:43;51.84;50.52;54.11;;
71030;Laerm;63723;51.436;5.976;2023-04-25T00:20:56;51.85;50.59;53.74;;
71030;Laerm;63723;51.436;5.976;2023-04-25T00:21:07;51.86;50.34;54.94;;
71030;Laerm;63723;51.436;5.976;2023-04-25T00:21:18;51.77;50.51;54.69;;
71030;Laerm;63723;51.436;5.976;2023-04-25T00:21:30;51.71;50.53;55.45;;
71030;Laerm;63723;51.436;5.976;2023-04-25T00:21:41;51.96;50.38;54.43;;
71030;Laerm;63723;51.436;5.976;2023-04-25T00:21:52;52.26;50.78;55.70;;
71030;Laerm;63723;51.436;5.976;2023-04-25T00:22:03;51.88;50.58;55.69;;
71030;Laerm;63723;51.436;5.976;2023-04-25T00:22:13;52.08;50.52;55.86;;
71030;Laerm;63723;51.436;5.976;2023-04-25T00:22:24;52.10;50.88;54.04;;
71030;Laerm;63723;51.436;5.976;2023-04-25T00:22:34;52.03;50.61;54.88;;
71030;Laerm;63723;51.436;5.976;2023-04-25T00:22:47;52.13;50.59;53.58;;
71030;Laerm;63723;51.436;5.976;2023-04-25T00:22:57;52.02;50.76;54.53;;
71030;Laerm;63723;51.436;5.976;2023-04-25T00:23:08;52.26;50.45;55.37;;
71030;Laerm;63723;51.436;5.976;2023-04-25T00:23:18;52.04;50.98;54.40;;
71030;Laerm;63723;51.436;5.976;2023-04-25T00:23:28;51.94;50.69;55.04;;
71030;Laerm;63723;51.436;5.976;2023-04-25T00:23:39;51.80;50.58;54.23;;
71030;Laerm;63723;51.436;5.976;2023-04-25T00:23:54;51.82;50.41;55.19;;
71030;Laerm;63723;51.436;5.976;2023-04-25T00:24:04;52.02;50.58;58.25;;
71030;Laerm;63723;51.436;5.976;2023-04-25T00:24:16;51.80;50.54;55.74;;
71030;Laerm;63723;51.436;5.976;2023-04-25T00:24:27;51.77;50.43;53.98;;
71030;Laerm;63723;51.436;5.976;2023-04-25T00:24:37;51.85;50.52;54.17;;
71030;Laerm;63723;51.436;5.976;2023-04-25T00:24:47;52.02;50.70;55.04;;
71030;Laerm;63723;51.436;5.976;2023-04-25T00:25:01;52.08;50.73;55.50;;
71030;Laerm;63723;51.436;5.976;2023-04-25T00:25:13;51.96;50.82;54.60;;
71030;Laerm;63723;51.436;5.976;2023-04-25T00:25:24;51.98;50.57;55.21;;
71030;Laerm;63723;51.436;5.976;2023-04-25T00:25:34;52.03;50.72;56.84;;
71030;Laerm;63723;51.436;5.976;2023-04-25T00:25:45;52.01;50.75;55.29;;
71030;Laerm;63723;51.436;5.976;2023-04-25T00:25:56;52.13;50.84;55.73;;
71030;Laerm;63723;51.436;5.976;2023-04-25T00:26:06;52.03;50.61;54.14;;
71030;Laerm;63723;51.436;5.976;2023-04-25T00:26:18;51.92;50.72;54.08;;
71030;Laerm;63723;51.436;5.976;2023-04-25T00:26:29;51.88;50.50;57.80;;
71030;Laerm;63723;51.436;5.976;2023-04-25T00:26:39;51.85;50.79;54.60;;
71030;Laerm;63723;51.436;5.976;2023-04-25T00:26:49;51.93;50.93;53.49;;
71030;Laerm;63723;51.436;5.976;2023-04-25T00:27:00;51.58;49.93;54.92;;
71030;Laerm;63723;51.436;5.976;2023-04-25T00:27:10;51.42;49.94;54.74;;
71030;Laerm;63723;51.436;5.976;2023-04-25T00:27:21;51.70;50.55;53.70;;
71030;Laerm;63723;51.436;5.976;2023-04-25T00:27:31;51.74;50.14;54.50;;
71030;Laerm;63723;51.436;5.976;2023-04-25T00:27:42;51.84;50.31;53.84;;
71030;Laerm;63723;51.436;5.976;2023-04-25T00:27:52;51.99;50.10;54.29;;
71030;Laerm;63723;51.436;5.976;2023-04-25T00:28:03;52.13;50.76;54.90;;
71030;Laerm;63723;51.436;5.976;2023-04-25T00:28:13;51.83;50.61;53.89;;
71030;Laerm;63723;51.436;5.976;2023-04-25T00:28:23;51.97;49.83;53.92;;
71030;Laerm;63723;51.436;5.976;2023-04-25T00:28:34;51.77;50.40;55.38;;
71030;Laerm;63723;51.436;5.976;2023-04-25T00:28:44;51.75;50.73;54.66;;
71030;Laerm;63723;51.436;5.976;2023-04-25T00:28:55;51.62;50.52;53.80;;
71030;Laerm;63723;51.436;5.976;2023-04-25T00:29:05;51.75;50.32;53.62;;
71030;Laerm;63723;51.436;5.976;2023-04-25T00:29:16;51.99;50.83;53.56;;
71030;Laerm;63723;51.436;5.976;2023-04-25T00:29:26;62.29;52.38;67.55;;
71030;Laerm;63723;51.436;5.976;2023-04-25T00:29:37;63.35;60.14;65.23;;
71030;Laerm;63723;51.436;5.976;2023-04-25T00:29:47;58.28;50.61;64.30;;
71030;Laerm;63723;51.436;5.976;2023-04-25T00:29:58;51.62;50.44;55.26;;
71030;Laerm;63723;51.436;5.976;2023-04-25T00:30:08;51.75;50.64;55.64;;
71030;Laerm;63723;51.436;5.976;2023-04-25T00:30:19;51.98;50.45;53.95;;
71030;Laerm;63723;51.436;5.976;2023-04-25T00:30:30;51.86;50.45;54.68;;
71030;Laerm;63723;51.436;5.976;2023-04-25T00:30:40;51.79;50.42;55.30;;
71030;Laerm;63723;51.436;5.976;2023-04-25T00:30:53;51.75;50.20;53.43;;
71030;Laerm;63723;51.436;5.976;2023-04-25T00:31:07;51.87;50.62;54.77;;
71030;Laerm;63723;51.436;5.976;2023-04-25T00:31:18;51.63;50.45;54.56;;
71030;Laerm;63723;51.436;5.976;2023-04-25T00:31:28;51.61;50.41;53.36;;
71030;Laerm;63723;51.436;5.976;2023-04-25T00:31:39;51.71;50.60;54.20;;
71030;Laerm;63723;51.436;5.976;2023-04-25T00:31:49;51.73;50.54;53.20;;
71030;Laerm;63723;51.436;5.976;2023-04-25T00:32:00;51.69;50.58;53.26;;
71030;Laerm;63723;51.436;5.976;2023-04-25T00:32:10;51.85;50.28;54.66;;
71030;Laerm;63723;51.436;5.976;2023-04-25T00:32:21;51.66;50.43;53.58;;
71030;Laerm;63723;51.436;5.976;2023-04-25T00:32:33;57.79;50.83;68.19;;
71030;Laerm;63723;51.436;5.976;2023-04-25T00:32:44;51.71;50.38;53.25;;
71030;Laerm;63723;51.436;5.976;2023-04-25T00:32:55;51.65;50.67;53.48;;
71030;Laerm;63723;51.436;5.976;2023-04-25T00:33:06;51.83;50.64;53.65;;
71030;Laerm;63723;51.436;5.976;2023-04-25T00:33:16;51.85;50.67;54.78;;
71030;Laerm;63723;51.436;5.976;2023-04-25T00:33:27;51.73;50.57;53.44;;
71030;Laerm;63723;51.436;5.976;2023-04-25T00:33:37;51.78;50.79;53.50;;
71030;Laerm;63723;51.436;5.976;2023-04-25T00:33:47;51.77;50.15;54.37;;
71030;Laerm;63723;51.436;5.976;2023-04-25T00:33:58;51.70;50.31;54.02;;
71030;Laerm;63723;51.436;5.976;2023-04-25T00:34:08;51.79;50.60;54.86;;
71030;Laerm;63723;51.436;5.976;2023-04-25T00:34:22;51.79;50.69;54.44;;
71030;Laerm;63723;51.436;5.976;2023-04-25T00:34:32;51.77;50.45;53.18;;
71030;Laerm;63723;51.436;5.976;2023-04-25T00:34:42;51.84;50.69;53.85;;
71030;Laerm;63723;51.436;5.976;2023-04-25T00:34:53;51.73;50.66;52.89;;
71030;Laerm;63723;51.436;5.976;2023-04-25T00:35:03;51.74;50.66;53.09;;
71030;Laerm;63723;51.436;5.976;2023-04-25T00:35:13;51.81;50.89;54.55;;
71030;Laerm;63723;51.436;5.976;2023-04-25T00:35:24;52.08;50.82;54.75;;
71030;Laerm;63723;51.436;5.976;2023-04-25T00:35:38;51.99;50.48;53.55;;
71030;Laerm;63723;51.436;5.976;2023-04-25T00:35:48;51.81;50.59;53.38;;
71030;Laerm;63723;51.436;5.976;2023-04-25T00:35:59;51.85;50.61;55.15;;
71030;Laerm;63723;51.436;5.976;2023-04-25T00:36:09;51.80;50.81;54.57;;
71030;Laerm;63723;51.436;5.976;2023-04-25T00:36:20;51.82;50.17;54.25;;
71030;Laerm;63723;51.436;5.976;2023-04-25T00:36:30;51.88;50.77;53.98;;
71030;Laerm;63723;51.436;5.976;2023-04-25T00:36:41;52.05;50.75;58.23;;
71030;Laerm;63723;51.436;5.976;2023-04-25T00:36:51;51.86;50.47;58.23;;
71030;Laerm;63723;51.436;5.976;2023-04-25T00:37:02;51.78;50.71;53.50;;
71030;Laerm;63723;51.436;5.976;2023-04-25T00:37:12;51.81;50.54;53.30;;
71030;Laerm;63723;51.436;5.976;2023-04-25T00:37:23;51.63;50.50;54.15;;
71030;Laerm;63723;51.436;5.976;2023-04-25T00:37:33;51.52;50.06;53.19;;
71030;Laerm;63723;51.436;5.976;2023-04-25T00:37:44;51.43;50.21;52.73;;
71030;Laerm;63723;51.436;5.976;2023-04-25T00:37:55;51.58;50.40;53.46;;
71030;Laerm;63723;51.436;5.976;2023-04-25T00:38:09;51.79;50.21;54.43;;
71030;Laerm;63723;51.436;5.976;2023-04-25T00:38:20;51.56;50.51;53.53;;
71030;Laerm;63723;51.436;5.976;2023-04-25T00:38:31;51.65;50.51;54.38;;
71030;Laerm;63723;51.436;5.976;2023-04-25T00:38:41;51.79;50.59;55.96;;
71030;Laerm;63723;51.436;5.976;2023-04-25T00:38:52;51.52;50.23;53.47;;
71030;Laerm;63723;51.436;5.976;2023-04-25T00:39:05;51.62;50.31;54.98;;
71030;Laerm;63723;51.436;5.976;2023-04-25T00:39:16;51.76;50.53;55.25;;
71030;Laerm;63723;51.436;5.976;2023-04-25T00:39:26;51.60;49.53;54.05;;
71030;Laerm;63723;51.436;5.976;2023-04-25T00:39:37;50.55;49.04;53.68;;
71030;Laerm;63723;51.436;5.976;2023-04-25T00:39:47;57.18;49.23;60.56;;
71030;Laerm;63723;51.436;5.976;2023-04-25T00:39:58;59.23;57.96;60.39;;
71030;Laerm;63723;51.436;5.976;2023-04-25T00:40:08;59.31;57.50;60.86;;
71030;Laerm;63723;51.436;5.976;2023-04-25T00:40:19;59.26;58.03;60.80;;
71030;Laerm;63723;51.436;5.976;2023-04-25T00:40:29;59.34;58.14;60.62;;
71030;Laerm;63723;51.436;5.976;2023-04-25T00:40:40;59.30;57.85;60.69;;
71030;Laerm;63723;51.436;5.976;2023-04-25T00:40:50;59.42;57.88;60.52;;
71030;Laerm;63723;51.436;5.976;2023-04-25T00:41:01;59.15;57.40;60.62;;
71030;Laerm;63723;51.436;5.976;2023-04-25T00:41:15;58.51;57.34;59.73;;
71030;Laerm;63723;51.436;5.976;2023-04-25T00:41:25;58.04;56.52;59.57;;
71030;Laerm;63723;51.436;5.976;2023-04-25T00:41:36;58.70;57.26;60.06;;
71030;Laerm;63723;51.436;5.976;2023-04-25T00:41:47;58.69;57.40;60.43;;
71030;Laerm;63723;51.436;5.976;2023-04-25T00:41:58;59.21;57.32;61.65;;
71030;Laerm;63723;51.436;5.976;2023-04-25T00:42:08;58.83;57.04;60.56;;
71030;Laerm;63723;51.436;5.976;2023-04-25T00:42:19;61.56;57.15;64.70;;
71030;Laerm;63723;51.436;5.976;2023-04-25T00:42:29;58.85;57.42;60.18;;
71030;Laerm;63723;51.436;5.976;2023-04-25T00:42:40;59.11;57.65;60.95;;
71030;Laerm;63723;51.436;5.976;2023-04-25T00:42:51;59.33;58.13;60.87;;
71030;Laerm;63723;51.436;5.976;2023-04-25T00:43:02;59.13;58.05;60.30;;
71030;Laerm;63723;51.436;5.976;2023-04-25T00:43:12;59.25;57.89;60.54;;
71030;Laerm;63723;51.436;5.976;2023-04-25T00:43:25;59.24;57.95;60.52;;
71030;Laerm;63723;51.436;5.976;2023-04-25T00:43:38;59.27;57.48;60.71;;
71030;Laerm;63723;51.436;5.976;2023-04-25T00:43:49;59.23;57.67;63.79;;
71030;Laerm;63723;51.436;5.976;2023-04-25T00:44:01;59.52;58.26;61.05;;
71030;Laerm;63723;51.436;5.976;2023-04-25T00:44:13;59.36;58.20;60.77;;
71030;Laerm;63723;51.436;5.976;2023-04-25T00:44:27;58.84;57.28;60.39;;
71030;Laerm;63723;51.436;5.976;2023-04-25T00:44:49;58.64;56.27;60.09;;
71030;Laerm;63723;51.436;5.976;2023-04-25T00:45:00;58.75;57.37;60.08;;
71030;Laerm;63723;51.436;5.976;2023-04-25T00:45:12;58.67;57.39;60.17;;
71030;Laerm;63723;51.436;5.976;2023-04-25T00:45:27;58.67;57.32;60.48;;
71030;Laerm;63723;51.436;5.976;2023-04-25T00:45:38;58.45;57.11;59.73;;
71030;Laerm;63723;51.436;5.976;2023-04-25T00:45:49;58.76;57.08;60.12;;
71030;Laerm;63723;51.436;5.976;2023-04-25T00:46:01;59.00;57.22;61.58;;
71030;Laerm;63723;51.436;5.976;2023-04-25T00:46:11;59.69;57.72;62.13;;
71030;Laerm;63723;51.436;5.976;2023-04-25T00:46:22;59.36;57.86;60.68;;
71030;Laerm;63723;51.436;5.976;2023-04-25T00:46:32;59.22;58.05;60.82;;
71030;Laerm;63723;51.436;5.976;2023-04-25T00:46:47;59.38;57.90;61.52;;
71030;Laerm;63723;51.436;5.976;2023-04-25T00:46:57;59.44;57.95;60.72;;
71030;Laerm;63723;51.436;5.976;2023-04-25T00:47:08;59.32;57.82;60.79;;
71030;Laerm;63723;51.436;5.976;2023-04-25T00:47:18;59.39;58.16;60.83;;
71030;Laerm;63723;51.436;5.976;2023-04-25T00:47:29;58.18;55.96;60.91;;
71030;Laerm;63723;51.436;5.976;2023-04-25T00:47:40;57.63;55.69;60.66;;
71030;Laerm;63723;51.436;5.976;2023-04-25T00:47:53;59.16;56.17;62.58;;
71030;Laerm;63723;51.436;5.976;2023-04-25T00:48:04;59.19;57.25;62.68;;
71030;Laerm;63723;51.436;5.976;2023-04-25T00:48:15;58.89;57.50;60.23;;
71030;Laerm;63723;51.436;5.976;2023-04-25T00:48:25;58.84;57.14;60.02;;
71030;Laerm;63723;51.436;5.976;2023-04-25T00:48:36;59.22;57.37;60.57;;
71030;Laerm;63723;51.436;5.976;2023-04-25T00:48:46;59.47;58.14;63.13;;
71030;Laerm;63723;51.436;5.976;2023-04-25T00:48:56;59.27;57.61;60.83;;
71030;Laerm;63723;51.436;5.976;2023-04-25T00:49:06;59.39;58.05;61.00;;
71030;Laerm;63723;51.436;5.976;2023-04-25T00:49:17;58.75;57.32;60.21;;
71030;Laerm;63723;51.436;5.976;2023-04-25T00:49:27;58.32;56.85;60.21;;
71030;Laerm;63723;51.436;5.976;2023-04-25T00:49:37;58.21;56.33;59.61;;
71030;Laerm;63723;51.436;5.976;2023-04-25T00:49:51;57.90;56.48;59.36;;
71030;Laerm;63723;51.436;5.976;2023-04-25T00:50:03;57.97;56.62;59.21;;
71030;Laerm;63723;51.436;5.976;2023-04-25T00:50:14;58.12;56.75;59.79;;
71030;Laerm;63723;51.436;5.976;2023-04-25T00:50:24;58.07;56.94;59.23;;
71030;Laerm;63723;51.436;5.976;2023-04-25T00:50:35;57.76;56.13;59.20;;
71030;Laerm;63723;51.436;5.976;2023-04-25T00:50:58;57.57;56.15;59.20;;
71030;Laerm;63723;51.436;5.976;2023-04-25T00:51:09;57.55;56.04;58.91;;
71030;Laerm;63723;51.436;5.976;2023-04-25T00:51:23;57.62;56.08;59.05;;
71030;Laerm;63723;51.436;5.976;2023-04-25T00:51:35;57.70;56.05;59.74;;
71030;Laerm;63723;51.436;5.976;2023-04-25T00:51:45;57.87;56.23;59.18;;
71030;Laerm;63723;51.436;5.976;2023-04-25T00:51:55;57.69;56.06;59.26;;
71030;Laerm;63723;51.436;5.976;2023-04-25T00:52:07;57.77;56.28;59.21;;
71030;Laerm;63723;51.436;5.976;2023-04-25T00:52:17;57.73;56.26;59.86;;
71030;Laerm;63723;51.436;5.976;2023-04-25T00:52:28;57.55;56.24;60.32;;
71030;Laerm;63723;51.436;5.976;2023-04-25T00:52:42;58.05;56.22;59.28;;
71030;Laerm;63723;51.436;5.976;2023-04-25T00:52:53;58.21;56.59;60.10;;
71030;Laerm;63723;51.436;5.976;2023-04-25T00:53:04;57.95;56.68;59.45;;
71030;Laerm;63723;51.436;5.976;2023-04-25T00:53:14;59.06;56.48;60.97;;
71030;Laerm;63723;51.436;5.976;2023-04-25T00:53:26;58.32;57.11;59.58;;
71030;Laerm;63723;51.436;5.976;2023-04-25T00:53:37;58.17;56.67;60.05;;
71030;Laerm;63723;51.436;5.976;2023-04-25T00:53:50;57.98;56.40;61.31;;
71030;Laerm;63723;51.436;5.976;2023-04-25T00:54:07;58.04;56.02;59.82;;
71030;Laerm;63723;51.436;5.976;2023-04-25T00:54:20;57.40;56.14;60.27;;
71030;Laerm;63723;51.436;5.976;2023-04-25T00:54:34;57.13;55.83;58.42;;
71030;Laerm;63723;51.436;5.976;2023-04-25T00:54:44;56.94;55.62;58.72;;
71030;Laerm;63723;51.436;5.976;2023-04-25T00:54:55;57.91;55.70;59.60;;
71030;Laerm;63723;51.436;5.976;2023-04-25T00:55:05;57.13;55.84;60.87;;
71030;Laerm;63723;51.436;5.976;2023-04-25T00:55:15;57.23;55.88;58.26;;
71030;Laerm;63723;51.436;5.976;2023-04-25T00:55:26;56.92;54.96;58.89;;
71030;Laerm;63723;51.436;5.976;2023-04-25T00:55:36;56.91;55.04;58.58;;
71030;Laerm;63723;51.436;5.976;2023-04-25T00:55:47;57.09;55.83;58.92;;
71030;Laerm;63723;51.436;5.976;2023-04-25T00:55:58;57.09;56.01;58.30;;
71030;Laerm;63723;51.436;5.976;2023-04-25T00:56:08;57.06;55.83;58.49;;
71030;Laerm;63723;51.436;5.976;2023-04-25T00:56:19;57.01;55.78;58.93;;
71030;Laerm;63723;51.436;5.976;2023-04-25T00:56:29;57.02;55.52;58.75;;
71030;Laerm;63723;51.436;5.976;2023-04-25T00:56:40;57.37;55.45;58.60;;
71030;Laerm;63723;51.436;5.976;2023-04-25T00:56:51;57.24;55.68;58.34;;
71030;Laerm;63723;51.436;5.976;2023-04-25T00:57:01;57.29;55.56;58.69;;
71030;Laerm;63723;51.436;5.976;2023-04-25T00:57:12;57.20;56.01;58.45;;
71030;Laerm;63723;51.436;5.976;2023-04-25T00:57:23;57.04;55.74;60.33;;
71030;Laerm;63723;51.436;5.976;2023-04-25T00:57:33;57.03;55.59;59.13;;
71030;Laerm;63723;51.436;5.976;2023-04-25T00:57:44;58.06;56.42;59.66;;
71030;Laerm;63723;51.436;5.976;2023-04-25T00:57:54;57.16;55.58;58.70;;
71030;Laerm;63723;51.436;5.976;2023-04-25T00:58:05;59.73;56.33;60.95;;
71030;Laerm;63723;51.436;5.976;2023-04-25T00:58:16;59.98;49.67;61.04;;
71030;Laerm;63723;51.436;5.976;2023-04-25T00:58:27;59.88;55.93;61.04;;
71030;Laerm;63723;51.436;5.976;2023-04-25T00:58:37;59.91;58.58;60.81;;
71030;Laerm;63723;51.436;5.976;2023-04-25T00:58:48;59.84;58.65;61.33;;
71030;Laerm;63723;51.436;5.976;2023-04-25T00:58:59;59.47;57.75;60.70;;
71030;Laerm;63723;51.436;5.976;2023-04-25T00:59:10;59.22;57.23;61.02;;
71030;Laerm;63723;51.436;5.976;2023-04-25T00:59:20;59.58;58.01;60.93;;
71030;Laerm;63723;51.436;5.976;2023-04-25T00:59:31;60.75;57.95;62.23;;
71030;Laerm;63723;51.436;5.976;2023-04-25T00:59:42;60.35;58.03;62.32;;
71030;Laerm;63723;51.436;5.976;2023-04-25T00:59:54;59.35;57.38;60.81;;
71030;Laerm;63723;51.436;5.976;2023-04-25T01:00:05;58.53;56.99;60.02;;
71030;Laerm;63723;51.436;5.976;2023-04-25T01:00:16;58.03;56.74;59.67;;
71030;Laerm;63723;51.436;5.976;2023-04-25T01:00:27;58.16;56.69;59.66;;
71030;Laerm;63723;51.436;5.976;2023-04-25T01:00:38;58.23;56.79;59.68;;
71030;Laerm;63723;51.436;5.976;2023-04-25T01:00:50;58.83;57.10;64.27;;
71030;Laerm;63723;51.436;5.976;2023-04-25T01:01:01;58.50;56.79;60.47;;
71030;Laerm;63723;51.436;5.976;2023-04-25T01:01:12;58.54;57.11;60.43;;
71030;Laerm;63723;51.436;5.976;2023-04-25T01:01:23;58.11;56.34;59.53;;
71030;Laerm;63723;51.436;5.976;2023-04-25T01:01:33;58.17;56.33;59.56;;
71030;Laerm;63723;51.436;5.976;2023-04-25T01:01:43;57.83;56.25;59.09;;
71030;Laerm;63723;51.436;5.976;2023-04-25T01:01:55;58.25;56.53;60.37;;
71030;Laerm;63723;51.436;5.976;2023-04-25T01:02:05;59.16;57.48;64.87;;